• Join FlightAware (Why Join?)
  • Login
  • US Flag 
10:09PM EDT


 

Airport Tracker/Info


-or-


 

Live Flight TrackerFlight Track Log ✈ N184RB ✈ 28-Apr-2013 ✈ KMTN - 6G1

Flight Track Log - Related Links

Times and Time Zones

All times are in EDT time to prevent confusion due to time zone crossing. See the N184RB flight status page for this flight to view local times or setup timezone preferences in your user account.

Time Position Orientation Groundspeed Altitude Reporting Facility
EDT Latitude Longitude Course Direction KTS MPH feet Rate Location/Type
03:02PM 39.3000 -76.4167 218° Southwest 155 178 1,800  Level Potomac TRACON
03:03PM 39.3000 -76.4667 270° West 155 178 3,200 1,320 Climbing Potomac TRACON
03:04PM 39.3000 -76.5167 270° West 151 174 4,400 1,320 Climbing Potomac TRACON
03:05PM 39.3000 -76.5667 270° West 151 174 5,800 1,380 Climbing Potomac TRACON
03:06PM 39.3000 -76.6167 270° West 158 182 7,200 1,260 Climbing Potomac TRACON
03:07PM 39.3000 -76.6833 270° West 163 188 8,400 1,260 Climbing Potomac TRACON
03:08PM 39.3000 -76.7500 270° West 169 194 9,900 1,140 Climbing Potomac TRACON
03:09PM 39.3000 -76.8000 270° West 159 183 10,900 1,200 Climbing Potomac TRACON
03:10PM 39.3000 -76.8500 270° West 154 177 12,200 1,260 Climbing Potomac TRACON
03:11PM 39.3000 -76.9167 270° West 159 183 13,400 1,080 Climbing Potomac TRACON
03:12PM 39.2833 -76.9667 247° West 161 185 14,400 780 Climbing Potomac TRACON
03:14PM 39.3525 -77.0622 313° West 196 226 15,900 480 Climbing Washington Center
03:15PM 39.3936 -77.1197 277° West 208 239 15,900 120 Level Washington Center
03:16PM 39.4367 -77.1742 316° Northwest 214 246 16,200 600 Climbing Washington Center
03:17PM 39.4733 -77.2261 312° West 214 246 17,200 840 Climbing Washington Center
03:18PM 39.5061 -77.2753 311° West 199 229 17,900 420 Climbing Washington Center
03:19PM 39.5428 -77.3219 316° Northwest 192 221 18,100 300 Climbing Washington Center
03:20PM 39.5733 -77.3739 307° West 187 215 18,600 480 Climbing Washington Center
03:21PM 39.5997 -77.4283 302° West 187 215 19,100 480 Climbing Washington Center
03:23PM 39.6769 -77.5647 306° West 182 209 20,400 480 Climbing Cleveland Center
03:24PM 39.7033 -77.6231 300° West 192 221 20,900 300 Climbing Cleveland Center
03:25PM 39.7342 -77.6783 306° West 192 221 21,100 300 Climbing Cleveland Center
03:26PM 39.7606 -77.7339 302° West 187 215 21,500 240 Climbing Cleveland Center
03:27PM 39.7911 -77.7894 306° West 187 215 21,600 240 Climbing Cleveland Center
03:28PM 39.8194 -77.8478 302° West 187 215 22,000 180 Climbing Cleveland Center
03:29PM 39.8522 -77.9058 306° West 187 215 22,000  Level Cleveland Center
03:30PM 39.8850 -77.9722 303° West 199 229 22,000  Level Cleveland Center
03:31PM 39.9178 -78.0414 302° West 213 245 22,000  Level Cleveland Center
03:32PM 39.9569 -78.1131 306° West 232 267 22,000  Level Cleveland Center
03:33PM 39.9939 -78.1847 304° West 238 274 22,000  Level Cleveland Center
03:34PM 40.0331 -78.2594 304° West 243 280 22,000  Level Cleveland Center
03:35PM 40.0614 -78.3261 299° West 243 280 22,000  Level Cleveland Center
03:36PM 40.0961 -78.3983 302° West 243 280 22,000  Level Cleveland Center
03:37PM 40.1331 -78.4678 305° West 243 280 22,000  Level Cleveland Center
03:38PM 40.1697 -78.5400 304° West 243 280 22,000  Level Cleveland Center
03:39PM 40.2044 -78.6094 303° West 243 280 22,000  Level Cleveland Center
03:40PM 40.2389 -78.6819 302° West 243 280 22,000  Level Cleveland Center
03:41PM 40.2756 -78.7544 304° West 243 280 22,000  Level Cleveland Center
03:42PM 40.3122 -78.8269 304° West 238 274 22,000  Level Cleveland Center
03:43PM 40.3669 -78.8744 327° Northwest 238 274 22,000  Level Cleveland Center
03:44PM 40.4283 -78.9192 331° Northwest 239 275 22,000  Level Cleveland Center
03:45PM 40.4892 -78.9614 332° Northwest 249 287 22,000  Level Cleveland Center
03:46PM 40.5483 -79.0092 328° Northwest 249 287 22,000  Level Cleveland Center
03:47PM 40.6114 -79.0461 336° Northwest 249 287 22,000 -480 Level Cleveland Center
03:48PM 40.6619 -79.0969 323° Northwest 244 281 21,100 -1,080 Descending Cleveland Center
03:49PM 40.7147 -79.1478 324° Northwest 239 275 19,900 -1,020 Descending Cleveland Center
03:50PM 40.7656 -79.1986 323° Northwest 239 275 19,100 -900 Descending Cleveland Center
03:51PM 40.8119 -79.2444 323° Northwest 218 251 18,100 -1,320 Descending Cleveland Center
03:52PM 40.8583 -79.2872 325° Northwest 213 245 16,500 -1,800 Descending Cleveland Center
03:53PM 40.9003 -79.3278 324° Northwest 195 224 14,600 -1,920 Descending Cleveland Center
03:54PM 40.9383 -79.3683 321° Northwest 189 217 12,700 -1,800 Descending Cleveland Center
03:55PM 40.9783 -79.4061 325° Northwest 184 212 11,000 -1,800 Descending Cleveland Center
03:56PM 41.0206 -79.4464 324° Northwest 184 212 9,200 -1,800 Descending Cleveland Center
03:57PM 41.0606 -79.4872 322° Northwest 184 212 7,500 -1,800 Descending Cleveland Center
03:58PM 41.1025 -79.5278 324° Northwest 184 212 5,700 -1,200 Descending Cleveland Center
03:59PM 41.1425 -79.5658 324° Northwest 184 212 5,100 -360 Descending Cleveland Center
04:00PM 41.1844 -79.6064 324° Northwest 184 212 5,000 -120 Descending Cleveland Center
04:01PM 41.2267 -79.6472 324° Northwest 190 219 4,900  Descending Cleveland Center
04:02PM 41.2686 -79.6881 324° Northwest 190 219 5,000  Climbing Cleveland Center
04:03PM 41.3086 -79.7289 323° Northwest 185 213 4,900 -480 Descending Cleveland Center
04:04PM 41.3506 -79.7728 322° Northwest 185 213 4,100 -660 Descending Cleveland Center
04:05PM 41.3944 -79.8136 325° Northwest 195 224 3,600 -300 Descending Cleveland Center
04:06PM 41.4428 -79.8519 329° Northwest 195 224 3,600 -300 Level Cleveland Center
04:07PM 41.4844 -79.8264 25° Northeast 161 185 3,100 -480 Descending Cleveland Center
04:08PM 41.5156 -79.8039 28° Northeast 139 160 2,700 -480 Descending Cleveland Center
04:09PM 41.5486 -79.7814 27° Northeast 134 154 2,200 -540 Descending Cleveland Center
04:11PM 41.6000 -79.7333 26° Northeast  Level FlightAware Approximate
04:18PM 41.6088 -79.7413 26° Northeast  Level Estimated
04:19PM 41.6088 -79.7413 26° Northeast  Level Estimated
04:20PM 41.6088 -79.7413 26° Northeast  Level Estimated
04:21PM 41.6088 -79.7413 26° Northeast  Level Estimated